Time;durP1;ratioP1;P1;durP2;ratioP2;P2;SDS_P1;SDS_P2;PMS_P1;PMS_P2;Temp;Humidity;BMP_temperature;BMP_pressure;BME280_temperature;BME280_humidity;BME280_pressure;Samples;Min_cycle;Max_cycle;Signal;HPM_P1;HPM_P2
2023/09/08 00:00:06;;;;;;;16.30;9.40;;;;;;;;;;4973850;28;20050;-95
2023/09/08 00:02:33;;;;;;;13.73;9.57;;;;;;;;;;4974144;28;20049;-95
2023/09/08 00:04:59;;;;;;;16.55;9.07;;;;;;;;;;4963108;28;20047;-93
2023/09/08 00:07:25;;;;;;;15.30;8.18;;;;;;;;;;4946174;29;20031;-95
2023/09/08 00:09:51;;;;;;;18.10;9.02;;;;;;;;;;4948026;29;20411;-95
2023/09/08 00:12:18;;;;;;;13.05;8.82;;;;;;;;;;4948185;29;20039;-95
2023/09/08 00:14:44;;;;;;;16.58;8.18;;;;;;;;;;4949664;29;20399;-96
2023/09/08 00:17:10;;;;;;;18.52;8.75;;;;;;;;;;4949848;29;20040;-95
2023/09/08 00:19:36;;;;;;;16.35;7.90;;;;;;;;;;4960891;29;20027;-96
2023/09/08 00:22:03;;;;;;;14.43;7.47;;;;;;;;;;4967553;28;20042;-96
2023/09/08 00:24:29;;;;;;;12.75;8.02;;;;;;;;;;4967306;28;20058;-95
2023/09/08 00:26:55;;;;;;;11.55;7.97;;;;;;;;;;4966652;29;20038;-96
2023/09/08 00:29:21;;;;;;;13.55;7.85;;;;;;;;;;4967431;29;20107;-94
2023/09/08 00:31:47;;;;;;;15.20;8.15;;;;;;;;;;4967373;28;20035;-96
2023/09/08 00:34:13;;;;;;;13.27;8.10;;;;;;;;;;4947794;28;20032;-94
2023/09/08 00:39:43;;;;;;;15.52;7.18;;;;;;;;;;4961323;28;20155;-95
2023/09/08 00:42:12;;;;;;;13.98;7.72;;;;;;;;;;4971550;29;20023;-96
2023/09/08 00:44:38;;;;;;;13.57;7.38;;;;;;;;;;4976250;29;20028;-96
2023/09/08 01:57:11;;;;;;;12.95;7.72;;;;;;;;;;4978237;28;20035;-96
2023/09/08 01:59:37;;;;;;;11.27;7.47;;;;;;;;;;4975676;29;20035;-94
2023/09/08 02:02:04;;;;;;;12.77;7.68;;;;;;;;;;4962839;29;20034;-94
2023/09/08 02:04:30;;;;;;;10.43;7.60;;;;;;;;;;4962655;29;20030;-94
2023/09/08 02:31:54;;;;;;;16.15;10.57;;;;;;;;;;6072144;23;20028;-94
2023/09/08 03:38:02;;;;;;;20.15;9.48;;;;;;;;;;6011084;23;20934;-93
2023/09/08 03:40:28;;;;;;;18.63;11.20;;;;;;;;;;4959052;28;20323;-93
2023/09/08 03:42:54;;;;;;;20.25;11.40;;;;;;;;;;4960960;28;20031;-94
2023/09/08 03:45:20;;;;;;;25.33;14.82;;;;;;;;;;4961311;28;20023;-95
2023/09/08 03:47:46;;;;;;;22.67;13.60;;;;;;;;;;4960641;28;20038;-93
2023/09/08 03:50:45;;;;;;;20.95;11.70;;;;;;;;;;4959457;28;20330;-94
2023/09/08 03:53:11;;;;;;;16.48;11.73;;;;;;;;;;4961687;28;20046;-95
2023/09/08 03:55:37;;;;;;;16.95;11.95;;;;;;;;;;5268111;23;20017;-94
2023/09/08 03:58:04;;;;;;;17.33;11.90;;;;;;;;;;5006537;28;20104;-96
2023/09/08 04:00:30;;;;;;;17.48;11.35;;;;;;;;;;5012283;28;20041;-95
2023/09/08 04:02:56;;;;;;;17.48;11.57;;;;;;;;;;5007007;28;20022;-95
2023/09/08 04:05:28;;;;;;;19.92;11.00;;;;;;;;;;5008492;28;20023;-95
2023/09/08 04:07:55;;;;;;;20.38;11.35;;;;;;;;;;5009048;28;20405;-95
2023/09/08 04:10:21;;;;;;;18.98;12.15;;;;;;;;;;4992150;28;20027;-96
2023/09/08 04:12:47;;;;;;;14.88;10.73;;;;;;;;;;4989188;28;20094;-96
2023/09/08 04:15:13;;;;;;;22.33;11.93;;;;;;;;;;4990992;28;20030;-95
2023/09/08 04:17:40;;;;;;;20.23;11.32;;;;;;;;;;4990007;28;20050;-96
2023/09/08 04:20:07;;;;;;;15.20;10.75;;;;;;;;;;4975260;28;20121;-95
2023/09/08 04:22:34;;;;;;;21.13;11.20;;;;;;;;;;4992235;28;20042;-96
2023/09/08 04:25:00;;;;;;;15.98;10.63;;;;;;;;;;4991947;28;20078;-95
2023/09/08 04:27:26;;;;;;;16.50;10.13;;;;;;;;;;4992942;28;20035;-96
2023/09/08 04:29:52;;;;;;;15.93;11.07;;;;;;;;;;4992107;28;20098;-95
2023/09/08 04:32:19;;;;;;;15.25;10.52;;;;;;;;;;4991588;28;20027;-95
2023/09/08 04:34:45;;;;;;;18.35;10.40;;;;;;;;;;4990414;28;20034;-95
2023/09/08 04:37:11;;;;;;;16.67;11.82;;;;;;;;;;4990656;28;20043;-96
2023/09/08 04:50:57;;;;;;;18.38;10.80;;;;;;;;;;6140509;22;2430532;-95
2023/09/08 04:53:23;;;;;;;16.52;10.88;;;;;;;;;;6240792;23;20016;-94
2023/09/08 04:55:49;;;;;;;16.40;10.93;;;;;;;;;;6215174;23;20031;-95
2023/09/08 04:58:15;;;;;;;18.88;10.57;;;;;;;;;;6238440;23;20005;-95
2023/09/08 05:00:42;;;;;;;14.13;11.05;;;;;;;;;;6234385;23;20063;-96
2023/09/08 05:03:08;;;;;;;19.05;11.60;;;;;;;;;;6235886;23;20255;-96
2023/09/08 05:05:34;;;;;;;16.58;11.98;;;;;;;;;;6237314;23;20019;-95
2023/09/08 05:08:00;;;;;;;23.38;11.45;;;;;;;;;;6237382;23;20000;-95
2023/09/08 05:10:45;;;;;;;15.00;10.55;;;;;;;;;;6237216;23;20001;-96
2023/09/08 05:13:11;;;;;;;15.10;10.77;;;;;;;;;;6239456;23;20071;-96
2023/09/08 05:15:38;;;;;;;15.20;11.52;;;;;;;;;;6239271;23;20056;-96
2023/09/08 05:18:05;;;;;;;18.85;11.85;;;;;;;;;;6231198;23;20004;-96
2023/09/08 05:20:31;;;;;;;16.30;11.20;;;;;;;;;;6229449;23;20005;-94
2023/09/08 05:22:57;;;;;;;20.35;11.15;;;;;;;;;;6229390;23;20262;-94
2023/09/08 05:25:23;;;;;;;19.15;11.90;;;;;;;;;;6228183;23;20015;-95
2023/09/08 05:27:49;;;;;;;16.50;11.63;;;;;;;;;;6229812;23;20004;-95
2023/09/08 05:30:30;;;;;;;20.40;11.82;;;;;;;;;;6236950;23;20256;-95
2023/09/08 05:32:57;;;;;;;18.38;11.98;;;;;;;;;;6231889;23;20064;-94
2023/09/08 05:35:23;;;;;;;16.92;11.95;;;;;;;;;;6229055;23;20012;-96
2023/09/08 05:37:49;;;;;;;17.08;11.85;;;;;;;;;;6229818;23;20016;-94
2023/09/08 05:40:15;;;;;;;16.75;11.50;;;;;;;;;;6228448;23;20009;-95
2023/09/08 05:42:41;;;;;;;20.15;11.73;;;;;;;;;;6228502;23;20247;-96
2023/09/08 05:45:07;;;;;;;16.92;10.52;;;;;;;;;;6228532;23;20027;-96
2023/09/08 05:47:35;;;;;;;20.27;11.63;;;;;;;;;;6227993;23;20000;-96
2023/09/08 05:50:01;;;;;;;17.00;11.13;;;;;;;;;;6227475;23;20020;-94
2023/09/08 05:52:28;;;;;;;17.92;10.45;;;;;;;;;;6221433;23;20270;-96
2023/09/08 05:58:11;;;;;;;16.38;10.05;;;;;;;;;;6222182;23;20018;-94
2023/09/08 06:00:37;;;;;;;16.17;10.32;;;;;;;;;;6222775;23;20012;-94
2023/09/08 06:03:03;;;;;;;14.63;10.02;;;;;;;;;;6222777;23;20012;-93
2023/09/08 06:05:31;;;;;;;15.50;9.75;;;;;;;;;;6209602;23;20021;-95
2023/09/08 06:07:58;;;;;;;15.00;9.20;;;;;;;;;;6176688;23;20017;-94
2023/09/08 06:13:03;;;;;;;21.27;10.30;;;;;;;;;;6163269;23;20079;-96
2023/09/08 06:15:29;;;;;;;12.85;9.25;;;;;;;;;;6162430;23;20021;-78
2023/09/08 06:17:55;;;;;;;14.60;8.45;;;;;;;;;;6161433;23;20384;-78
2023/09/08 06:20:21;;;;;;;11.60;7.45;;;;;;;;;;6161619;23;20234;-77
2023/09/08 06:22:47;;;;;;;12.40;8.13;;;;;;;;;;6161485;23;20009;-78
2023/09/08 06:25:13;;;;;;;15.05;7.85;;;;;;;;;;6161410;23;20005;-77
2023/09/08 06:27:40;;;;;;;13.43;7.82;;;;;;;;;;6161633;23;20005;-78
2023/09/08 06:30:06;;;;;;;13.18;7.68;;;;;;;;;;6160346;23;20088;-78
2023/09/08 06:32:33;;;;;;;12.30;7.10;;;;;;;;;;6161230;23;20001;-77
2023/09/08 06:34:59;;;;;;;11.90;6.13;;;;;;;;;;6159450;23;20010;-78
2023/09/08 06:37:25;;;;;;;10.13;6.63;;;;;;;;;;6161436;23;20052;-77
2023/09/08 06:39:51;;;;;;;13.38;6.53;;;;;;;;;;6161671;23;20032;-77
2023/09/08 06:42:17;;;;;;;11.35;5.90;;;;;;;;;;6161305;23;20020;-77
2023/09/08 06:44:43;;;;;;;7.30;5.70;;;;;;;;;;6161514;23;20001;-77
2023/09/08 06:47:09;;;;;;;12.18;5.90;;;;;;;;;;6161771;23;20002;-77
2023/09/08 06:49:36;;;;;;;11.32;6.05;;;;;;;;;;6159171;23;20015;-77
2023/09/08 06:52:02;;;;;;;9.38;5.90;;;;;;;;;;6161447;23;20006;-78
2023/09/08 06:54:29;;;;;;;8.30;5.88;;;;;;;;;;6161119;23;20028;-77
2023/09/08 06:56:55;;;;;;;10.95;5.95;;;;;;;;;;6161335;23;20055;-77
2023/09/08 06:59:21;;;;;;;12.07;5.50;;;;;;;;;;6161406;23;20006;-78
2023/09/08 07:01:47;;;;;;;8.13;5.13;;;;;;;;;;6159609;23;20005;-78
2023/09/08 07:04:13;;;;;;;10.98;5.45;;;;;;;;;;6161087;23;20025;-78
2023/09/08 07:06:41;;;;;;;10.48;5.82;;;;;;;;;;6161246;23;20052;-78
2023/09/08 07:09:08;;;;;;;13.57;5.93;;;;;;;;;;6161328;23;20008;-78
2023/09/08 07:11:34;;;;;;;11.68;5.85;;;;;;;;;;6159363;23;20013;-78
2023/09/08 07:14:00;;;;;;;11.40;5.80;;;;;;;;;;6160919;23;20014;-78
2023/09/08 07:16:26;;;;;;;10.82;5.88;;;;;;;;;;6161479;23;20012;-78
2023/09/08 07:18:52;;;;;;;15.00;5.68;;;;;;;;;;6161234;23;20005;-78
2023/09/08 07:21:18;;;;;;;9.82;4.70;;;;;;;;;;6160936;23;20004;-78
2023/09/08 07:23:44;;;;;;;11.38;5.75;;;;;;;;;;6161302;23;20005;-76
2023/09/08 07:26:10;;;;;;;10.15;4.68;;;;;;;;;;6159669;23;20008;-76
2023/09/08 07:28:37;;;;;;;11.75;4.88;;;;;;;;;;6161170;23;20006;-76
2023/09/08 07:31:04;;;;;;;10.98;4.78;;;;;;;;;;6160487;23;20005;-76
2023/09/08 07:33:30;;;;;;;9.30;5.18;;;;;;;;;;6160841;23;20056;-76
2023/09/08 07:35:56;;;;;;;12.77;5.30;;;;;;;;;;6161333;23;20008;-76
2023/09/08 07:38:22;;;;;;;9.30;5.22;;;;;;;;;;6160818;23;20402;-76
2023/09/08 07:40:48;;;;;;;8.60;4.95;;;;;;;;;;6160853;23;20077;-76
2023/09/08 07:43:14;;;;;;;8.43;4.90;;;;;;;;;;6161271;23;20010;-79
2023/09/08 07:45:40;;;;;;;18.23;6.20;;;;;;;;;;6160951;23;20008;-76
2023/09/08 07:48:09;;;;;;;11.60;4.75;;;;;;;;;;6161165;23;20004;-76
2023/09/08 07:50:35;;;;;;;10.02;4.97;;;;;;;;;;6160230;23;20377;-76
2023/09/08 07:53:01;;;;;;;11.63;5.25;;;;;;;;;;6160486;23;20365;-76
2023/09/08 07:55:27;;;;;;;9.93;5.20;;;;;;;;;;6158984;23;20006;-76
2023/09/08 07:57:53;;;;;;;11.93;4.72;;;;;;;;;;6159367;23;20005;-76
2023/09/08 08:00:20;;;;;;;9.05;4.47;;;;;;;;;;6160636;23;20068;-76
2023/09/08 08:02:47;;;;;;;7.80;4.40;;;;;;;;;;6160723;23;20077;-76
2023/09/08 08:05:13;;;;;;;6.65;5.00;;;;;;;;;;6160955;23;20006;-76
2023/09/08 08:07:40;;;;;;;9.15;5.15;;;;;;;;;;6160236;23;20001;-76
2023/09/08 08:10:06;;;;;;;10.07;4.72;;;;;;;;;;6160468;23;20061;-76
2023/09/08 08:12:33;;;;;;;6.90;4.32;;;;;;;;;;6160480;23;20380;-76
2023/09/08 08:14:59;;;;;;;9.60;5.20;;;;;;;;;;6160124;23;20013;-76
2023/09/08 08:17:26;;;;;;;9.13;4.90;;;;;;;;;;6160692;23;20015;-76
2023/09/08 08:19:52;;;;;;;7.75;5.15;;;;;;;;;;6160686;23;20005;-76
2023/09/08 08:22:18;;;;;;;7.47;4.60;;;;;;;;;;6160453;23;19997;-76
2023/09/08 08:24:45;;;;;;;11.18;5.25;;;;;;;;;;6160695;23;20001;-76
2023/09/08 08:27:11;;;;;;;9.10;4.72;;;;;;;;;;6160658;23;20006;-76
2023/09/08 08:29:37;;;;;;;8.50;4.63;;;;;;;;;;6159234;23;20002;-76
2023/09/08 08:32:03;;;;;;;10.30;4.40;;;;;;;;;;6159195;23;20008;-76
2023/09/08 08:34:29;;;;;;;10.90;4.97;;;;;;;;;;6160594;23;20033;-76
2023/09/08 08:36:55;;;;;;;8.15;4.18;;;;;;;;;;6159180;23;20009;-76
2023/09/08 08:39:21;;;;;;;9.50;4.65;;;;;;;;;;6160018;23;20391;-76
2023/09/08 08:41:47;;;;;;;9.38;4.65;;;;;;;;;;6158663;23;20067;-76
2023/09/08 08:44:13;;;;;;;11.63;4.15;;;;;;;;;;6161157;23;20354;-76
2023/09/08 08:46:40;;;;;;;8.10;4.30;;;;;;;;;;6160593;23;20001;-77
2023/09/08 08:49:08;;;;;;;11.73;4.70;;;;;;;;;;6160452;23;19998;-76
2023/09/08 08:51:35;;;;;;;10.20;5.63;;;;;;;;;;6160831;23;20002;-76
2023/09/08 08:54:04;;;;;;;11.63;4.95;;;;;;;;;;6160444;23;20004;-76
2023/09/08 08:56:33;;;;;;;5.40;3.95;;;;;;;;;;6159940;23;20002;-84
2023/09/08 08:59:01;;;;;;;8.35;4.25;;;;;;;;;;6160710;23;20029;-84
2023/09/08 09:01:28;;;;;;;10.18;4.20;;;;;;;;;;6160633;23;20008;-84
2023/09/08 09:03:56;;;;;;;9.20;4.18;;;;;;;;;;6160380;23;20013;-85
2023/09/08 09:06:22;;;;;;;8.98;4.10;;;;;;;;;;6159961;23;20001;-82
2023/09/08 09:08:48;;;;;;;12.40;4.65;;;;;;;;;;6159857;23;20390;-82
2023/09/08 09:11:32;;;;;;;6.35;4.28;;;;;;;;;;6160273;23;20006;-82
2023/09/08 09:13:59;;;;;;;13.32;3.92;;;;;;;;;;6159975;23;20021;-82
2023/09/08 09:16:25;;;;;;;9.30;4.50;;;;;;;;;;6160547;23;20386;-82
2023/09/08 09:18:58;;;;;;;10.63;4.03;;;;;;;;;;6160371;23;20003;-83
2023/09/08 09:21:24;;;;;;;11.07;4.47;;;;;;;;;;6160640;23;20002;-83
2023/09/08 09:23:50;;;;;;;10.45;4.53;;;;;;;;;;6160371;23;20045;-82
2023/09/08 09:26:26;;;;;;;7.32;4.70;;;;;;;;;;6161273;23;19997;-82
2023/09/08 09:28:53;;;;;;;8.60;4.30;;;;;;;;;;6161014;23;20410;-82
2023/09/08 09:31:24;;;;;;;7.65;4.20;;;;;;;;;;6160387;23;20012;-83
2023/09/08 09:34:01;;;;;;;8.17;5.23;;;;;;;;;;6160815;23;20002;-82
2023/09/08 09:36:27;;;;;;;9.60;5.32;;;;;;;;;;6162139;23;20275;-83
2023/09/08 09:38:58;;;;;;;9.65;4.50;;;;;;;;;;6160833;23;20006;-83
2023/09/08 09:41:24;;;;;;;7.82;4.30;;;;;;;;;;6162158;23;20029;-82
2023/09/08 09:43:50;;;;;;;8.73;4.68;;;;;;;;;;6160931;23;20009;-83
2023/09/08 09:46:16;;;;;;;8.13;5.13;;;;;;;;;;6160239;23;20009;-83
2023/09/08 09:48:42;;;;;;;10.32;4.70;;;;;;;;;;6162328;23;20006;-83
2023/09/08 09:51:19;;;;;;;8.00;4.50;;;;;;;;;;6161636;23;20028;-83
2023/09/08 09:53:45;;;;;;;16.55;4.43;;;;;;;;;;6160206;23;20036;-83
2023/09/08 09:56:12;;;;;;;11.18;4.80;;;;;;;;;;6161968;23;20053;-83
2023/09/08 09:58:38;;;;;;;7.53;4.55;;;;;;;;;;6162178;23;20026;-81
2023/09/08 10:01:06;;;;;;;17.52;4.40;;;;;;;;;;6162195;23;20001;-82
2023/09/08 10:03:33;;;;;;;6.43;3.95;;;;;;;;;;6160527;23;20040;-81
2023/09/08 10:05:59;;;;;;;10.95;4.80;;;;;;;;;;6159987;23;20036;-81
2023/09/08 10:08:26;;;;;;;8.73;4.90;;;;;;;;;;6160445;23;20264;-82
2023/09/08 10:10:54;;;;;;;14.15;5.03;;;;;;;;;;6161944;23;20303;-82
2023/09/08 10:13:32;;;;;;;8.88;4.13;;;;;;;;;;6161930;23;20029;-86
2023/09/08 10:15:58;;;;;;;8.43;4.25;;;;;;;;;;6161065;23;20008;-87
2023/09/08 10:18:25;;;;;;;7.82;4.50;;;;;;;;;;6162193;23;20084;-86
2023/09/08 10:20:54;;;;;;;7.85;5.15;;;;;;;;;;6162523;23;20036;-83
2023/09/08 10:23:26;;;;;;;11.00;4.40;;;;;;;;;;6159767;23;20001;-82
2023/09/08 10:25:54;;;;;;;10.93;3.83;;;;;;;;;;6161744;23;20002;-82
2023/09/08 10:28:22;;;;;;;9.23;3.92;;;;;;;;;;6160345;23;20002;-82
2023/09/08 10:30:48;;;;;;;7.43;3.97;;;;;;;;;;6161976;23;20394;-83
2023/09/08 10:33:15;;;;;;;9.23;4.05;;;;;;;;;;6161570;23;20080;-83
2023/09/08 10:35:43;;;;;;;7.07;3.78;;;;;;;;;;6159762;23;20060;-83
2023/09/08 10:38:28;;;;;;;9.55;4.30;;;;;;;;;;6161511;23;20052;-83
2023/09/08 10:41:15;;;;;;;5.72;3.63;;;;;;;;;;6161922;23;20009;-83
2023/09/08 10:43:41;;;;;;;9.43;3.97;;;;;;;;;;6160459;23;20304;-83
2023/09/08 10:46:10;;;;;;;8.48;4.10;;;;;;;;;;6161619;23;19998;-82
2023/09/08 10:48:43;;;;;;;8.32;3.90;;;;;;;;;;6159601;23;20013;-83
2023/09/08 10:51:13;;;;;;;6.20;3.78;;;;;;;;;;6161771;23;20001;-83
2023/09/08 10:53:40;;;;;;;6.47;3.70;;;;;;;;;;6161489;23;20006;-82
2023/09/08 10:56:06;;;;;;;9.25;4.18;;;;;;;;;;6161696;23;20010;-83
2023/09/08 10:58:35;;;;;;;5.60;3.72;;;;;;;;;;6160011;23;20017;-83
2023/09/08 11:01:01;;;;;;;14.55;4.38;;;;;;;;;;6161721;23;19997;-83
2023/09/08 11:03:28;;;;;;;8.93;4.07;;;;;;;;;;6161162;23;19998;-82
2023/09/08 11:05:55;;;;;;;7.13;3.60;;;;;;;;;;6159666;23;20033;-83
2023/09/08 11:08:21;;;;;;;5.32;3.90;;;;;;;;;;6159990;23;20064;-83
2023/09/08 11:10:47;;;;;;;7.13;3.65;;;;;;;;;;6159384;23;20365;-82
2023/09/08 11:13:13;;;;;;;6.05;3.80;;;;;;;;;;6161235;23;20018;-83
2023/09/08 11:15:39;;;;;;;8.25;3.88;;;;;;;;;;6159981;23;20009;-83
2023/09/08 11:18:06;;;;;;;6.97;4.00;;;;;;;;;;6161154;23;20006;-83
2023/09/08 11:20:32;;;;;;;9.48;3.75;;;;;;;;;;6161049;23;20364;-83
2023/09/08 11:22:58;;;;;;;9.55;4.20;;;;;;;;;;6161059;23;20044;-83
2023/09/08 11:25:24;;;;;;;11.15;4.07;;;;;;;;;;6161500;23;20261;-87
2023/09/08 11:27:50;;;;;;;9.07;3.42;;;;;;;;;;6161480;23;20265;-88
2023/09/08 11:30:16;;;;;;;6.82;3.65;;;;;;;;;;6161903;23;20002;-87
2023/09/08 11:32:42;;;;;;;5.47;3.75;;;;;;;;;;6161859;23;20006;-87
2023/09/08 11:35:10;;;;;;;5.32;3.60;;;;;;;;;;6161542;23;20009;-88
2023/09/08 11:37:39;;;;;;;11.07;4.30;;;;;;;;;;6161948;23;20072;-88
2023/09/08 11:40:14;;;;;;;6.63;4.03;;;;;;;;;;6159932;23;20001;-89
2023/09/08 11:42:44;;;;;;;11.48;3.75;;;;;;;;;;6161885;23;20002;-89
2023/09/08 11:45:14;;;;;;;6.93;4.28;;;;;;;;;;6161548;23;20010;-89
2023/09/08 11:47:41;;;;;;;8.98;4.05;;;;;;;;;;6161825;23;20002;-89
2023/09/08 11:50:07;;;;;;;6.38;4.00;;;;;;;;;;6161668;23;20001;-88
2023/09/08 11:52:33;;;;;;;6.38;4.10;;;;;;;;;;6161349;23;20013;-89
2023/09/08 11:54:59;;;;;;;14.70;4.20;;;;;;;;;;6159677;23;20010;-89
2023/09/08 11:57:26;;;;;;;5.97;3.70;;;;;;;;;;6160264;23;20012;-89
2023/09/08 11:59:54;;;;;;;9.07;4.35;;;;;;;;;;6159859;23;20012;-89
2023/09/08 12:02:20;;;;;;;10.45;4.25;;;;;;;;;;6160256;23;20008;-89
2023/09/08 12:04:46;;;;;;;5.22;4.32;;;;;;;;;;6161400;23;19997;-89
2023/09/08 12:07:16;;;;;;;6.75;3.55;;;;;;;;;;6161261;23;19998;-89
2023/09/08 12:09:42;;;;;;;6.10;4.22;;;;;;;;;;6160176;23;20005;-89
2023/09/08 12:12:12;;;;;;;8.70;4.35;;;;;;;;;;6161545;23;20009;-89
2023/09/08 12:14:44;;;;;;;10.32;4.22;;;;;;;;;;6159937;23;20021;-89
2023/09/08 12:17:12;;;;;;;8.35;4.68;;;;;;;;;;6161357;23;20084;-89
2023/09/08 12:19:39;;;;;;;6.45;4.20;;;;;;;;;;6160185;23;20041;-89
2023/09/08 12:22:07;;;;;;;5.10;4.20;;;;;;;;;;6161173;23;20072;-88
2023/09/08 12:24:49;;;;;;;9.68;3.90;;;;;;;;;;6161583;23;20007;-88
2023/09/08 12:27:18;;;;;;;8.38;4.53;;;;;;;;;;6161569;23;20009;-90
2023/09/08 12:29:58;;;;;;;6.53;3.90;;;;;;;;;;6160126;23;20013;-89
2023/09/08 12:32:25;;;;;;;8.13;3.70;;;;;;;;;;6161239;23;20398;-89
2023/09/08 12:34:52;;;;;;;8.80;3.92;;;;;;;;;;6161489;23;20006;-89
2023/09/08 12:37:27;;;;;;;8.15;3.95;;;;;;;;;;6161525;23;20006;-89
2023/09/08 12:39:53;;;;;;;8.88;4.32;;;;;;;;;;6160958;23;20010;-89
2023/09/08 12:42:20;;;;;;;5.80;3.47;;;;;;;;;;6161397;23;20001;-89
2023/09/08 12:44:46;;;;;;;6.63;3.70;;;;;;;;;;6161387;23;20031;-88
2023/09/08 12:47:12;;;;;;;6.28;3.65;;;;;;;;;;6161495;23;20002;-87
2023/09/08 12:49:38;;;;;;;8.32;4.00;;;;;;;;;;6159650;23;20387;-89
2023/09/08 12:52:05;;;;;;;9.45;4.13;;;;;;;;;;6159902;23;20010;-88
2023/09/08 12:54:31;;;;;;;10.50;4.28;;;;;;;;;;6159713;23;20006;-87
2023/09/08 12:56:57;;;;;;;9.75;4.22;;;;;;;;;;6161472;23;20002;-89
2023/09/08 12:59:23;;;;;;;6.97;3.42;;;;;;;;;;6161575;23;20009;-88
2023/09/08 13:01:49;;;;;;;7.43;4.18;;;;;;;;;;6161185;23;20013;-89
2023/09/08 13:04:15;;;;;;;9.50;3.80;;;;;;;;;;6161812;23;20096;-89
2023/09/08 13:06:41;;;;;;;5.15;3.42;;;;;;;;;;6161815;23;20001;-89
2023/09/08 13:09:08;;;;;;;7.55;4.05;;;;;;;;;;6161236;23;20009;-88
2023/09/08 13:11:34;;;;;;;7.10;3.85;;;;;;;;;;6161923;23;20010;-89
2023/09/08 13:14:00;;;;;;;5.03;3.70;;;;;;;;;;6162860;23;20380;-89
2023/09/08 13:16:26;;;;;;;6.15;4.35;;;;;;;;;;6161918;23;20376;-88
2023/09/08 13:18:52;;;;;;;8.40;3.92;;;;;;;;;;6161680;23;20380;-89
2023/09/08 13:21:18;;;;;;;6.70;4.00;;;;;;;;;;6163280;23;20078;-88
2023/09/08 13:23:44;;;;;;;9.52;3.88;;;;;;;;;;6162831;23;20264;-89
2023/09/08 13:26:10;;;;;;;7.57;3.63;;;;;;;;;;6161653;23;20356;-88
2023/09/08 13:28:36;;;;;;;7.43;3.90;;;;;;;;;;6163207;23;20012;-88
2023/09/08 13:31:02;;;;;;;9.27;3.65;;;;;;;;;;6163247;23;20002;-89
2023/09/08 13:33:28;;;;;;;4.80;3.67;;;;;;;;;;6161065;23;20264;-89
2023/09/08 13:35:55;;;;;;;6.97;3.90;;;;;;;;;;6163009;23;20013;-88
2023/09/08 13:38:21;;;;;;;7.10;3.85;;;;;;;;;;6161570;23;20088;-88
2023/09/08 13:40:47;;;;;;;5.63;4.07;;;;;;;;;;6160783;23;20013;-88
2023/09/08 13:43:13;;;;;;;5.70;3.80;;;;;;;;;;6161556;23;20006;-88
2023/09/08 13:45:42;;;;;;;7.20;4.00;;;;;;;;;;6160766;23;20005;-88
2023/09/08 13:48:08;;;;;;;9.95;3.90;;;;;;;;;;6161361;23;20005;-89
2023/09/08 13:50:34;;;;;;;8.40;3.90;;;;;;;;;;6162982;23;19998;-88
2023/09/08 13:53:00;;;;;;;9.75;4.00;;;;;;;;;;6162912;23;20013;-88
2023/09/08 13:55:26;;;;;;;5.65;3.63;;;;;;;;;;6162846;23;20006;-88
2023/09/08 13:57:53;;;;;;;8.13;4.13;;;;;;;;;;6162952;23;19998;-88
2023/09/08 14:00:19;;;;;;;10.95;4.10;;;;;;;;;;6162614;23;20009;-88
2023/09/08 14:02:45;;;;;;;8.82;4.00;;;;;;;;;;6161650;23;20359;-87
2023/09/08 14:05:11;;;;;;;5.47;3.60;;;;;;;;;;6163015;23;20004;-89
2023/09/08 14:07:37;;;;;;;7.78;3.53;;;;;;;;;;6160448;23;20048;-89
2023/09/08 14:10:07;;;;;;;6.30;3.90;;;;;;;;;;6171591;23;20087;-96
2023/09/08 14:13:00;;;;;;;9.13;3.80;;;;;;;;;;6174892;23;20049;-96
2023/09/08 14:16:01;;;;;;;6.95;3.75;;;;;;;;;;6173179;23;20005;-96
2023/09/08 14:18:27;;;;;;;9.25;3.42;;;;;;;;;;6090142;23;20057;-96
2023/09/08 14:21:05;;;;;;;10.52;3.83;;;;;;;;;;6117246;23;20022;-96
2023/09/08 14:23:33;;;;;;;7.88;3.58;;;;;;;;;;6110317;23;20010;-96
2023/09/08 14:26:02;;;;;;;6.57;3.65;;;;;;;;;;6082060;23;20107;-96
2023/09/08 14:28:31;;;;;;;4.90;3.65;;;;;;;;;;6079718;23;20010;-96
2023/09/08 14:30:57;;;;;;;5.82;3.60;;;;;;;;;;6077746;23;20022;-86
2023/09/08 14:33:24;;;;;;;7.20;3.80;;;;;;;;;;6077099;23;20014;-86
2023/09/08 14:35:54;;;;;;;7.32;3.65;;;;;;;;;;6076268;23;20002;-86
2023/09/08 14:38:20;;;;;;;4.95;3.75;;;;;;;;;;6076926;23;20034;-87
2023/09/08 14:43:49;;;;;;;8.35;3.90;;;;;;;;;;6101226;23;20005;-86
2023/09/08 14:46:15;;;;;;;9.07;3.88;;;;;;;;;;6100734;23;20002;-85
2023/09/08 14:48:41;;;;;;;5.25;3.47;;;;;;;;;;6090986;23;20035;-86
2023/09/08 14:51:07;;;;;;;5.50;3.58;;;;;;;;;;6160872;23;20029;-87
2023/09/08 14:53:33;;;;;;;6.55;3.63;;;;;;;;;;6161790;23;20006;-87
2023/09/08 14:59:03;;;;;;;6.35;3.55;;;;;;;;;;6161586;23;20048;-87
2023/09/08 15:01:29;;;;;;;7.97;3.28;;;;;;;;;;6162123;23;20009;-86
2023/09/08 15:03:55;;;;;;;10.75;3.72;;;;;;;;;;6162038;23;20078;-86
2023/09/08 15:06:21;;;;;;;5.40;3.58;;;;;;;;;;6161838;23;20029;-87
2023/09/08 15:08:48;;;;;;;8.98;4.10;;;;;;;;;;6162006;23;20064;-87
2023/09/08 15:11:39;;;;;;;6.03;3.70;;;;;;;;;;6160382;23;20096;-85
2023/09/08 15:14:05;;;;;;;9.88;4.15;;;;;;;;;;6161358;23;20044;-87
2023/09/08 15:16:31;;;;;;;6.53;3.80;;;;;;;;;;6160060;23;20005;-86
2023/09/08 15:18:57;;;;;;;4.72;3.47;;;;;;;;;;6159697;23;20383;-85
2023/09/08 15:21:27;;;;;;;8.50;3.72;;;;;;;;;;6159768;23;20419;-87
2023/09/08 15:23:53;;;;;;;12.87;3.90;;;;;;;;;;6159969;23;20020;-87
2023/09/08 15:26:19;;;;;;;7.20;4.63;;;;;;;;;;6161492;23;20005;-87
2023/09/08 15:28:45;;;;;;;8.25;4.60;;;;;;;;;;6159528;23;20009;-87
2023/09/08 15:31:11;;;;;;;6.97;4.57;;;;;;;;;;6161006;23;20002;-87
2023/09/08 15:33:40;;;;;;;15.27;4.80;;;;;;;;;;6161797;23;20081;-87
2023/09/08 15:36:07;;;;;;;12.90;4.70;;;;;;;;;;6161187;23;20017;-87
2023/09/08 15:38:33;;;;;;;11.48;4.32;;;;;;;;;;6161649;23;20001;-86
2023/09/08 15:44:02;;;;;;;11.85;4.82;;;;;;;;;;6161353;23;20047;-87
2023/09/08 15:46:29;;;;;;;11.25;4.20;;;;;;;;;;6161607;23;20009;-87
2023/09/08 15:48:55;;;;;;;16.17;4.13;;;;;;;;;;6160706;23;20009;-86
2023/09/08 15:51:21;;;;;;;10.23;4.25;;;;;;;;;;6159468;23;20005;-87
2023/09/08 15:53:47;;;;;;;14.05;4.70;;;;;;;;;;6159919;23;20096;-86
2023/09/08 15:56:13;;;;;;;6.95;4.20;;;;;;;;;;6161365;23;20013;-86
2023/09/08 15:58:40;;;;;;;16.25;4.20;;;;;;;;;;6159603;23;20013;-86
2023/09/08 16:01:07;;;;;;;12.52;4.03;;;;;;;;;;6159777;23;20006;-86
2023/09/08 16:03:33;;;;;;;16.35;4.55;;;;;;;;;;6161348;23;20017;-86
2023/09/08 16:05:59;;;;;;;13.27;4.00;;;;;;;;;;6160138;23;20006;-87
2023/09/08 16:08:25;;;;;;;9.05;3.88;;;;;;;;;;6160099;23;20005;-87
2023/09/08 16:10:51;;;;;;;13.88;4.00;;;;;;;;;;6161345;23;20285;-86
2023/09/08 16:13:18;;;;;;;7.18;3.70;;;;;;;;;;6161225;23;20060;-86
2023/09/08 16:15:44;;;;;;;6.93;4.25;;;;;;;;;;6161140;23;20001;-86
2023/09/08 16:18:10;;;;;;;11.55;4.38;;;;;;;;;;6161118;23;20257;-87
2023/09/08 16:20:38;;;;;;;11.02;3.95;;;;;;;;;;6161370;23;20024;-86
2023/09/08 16:23:04;;;;;;;9.60;4.70;;;;;;;;;;6160838;23;20006;-86
2023/09/08 16:25:30;;;;;;;8.57;4.15;;;;;;;;;;6159477;23;20082;-87
2023/09/08 16:27:56;;;;;;;14.27;4.85;;;;;;;;;;6160956;23;20069;-87
2023/09/08 16:30:22;;;;;;;20.92;5.07;;;;;;;;;;6159216;23;20364;-86
2023/09/08 16:32:48;;;;;;;15.65;5.72;;;;;;;;;;6159811;23;20299;-86
2023/09/08 16:35:15;;;;;;;14.20;4.57;;;;;;;;;;6159760;23;20016;-86
2023/09/08 16:37:42;;;;;;;11.25;4.07;;;;;;;;;;6161376;23;20077;-85
2023/09/08 16:40:09;;;;;;;21.17;4.72;;;;;;;;;;6160678;23;20364;-86
2023/09/08 16:42:36;;;;;;;23.65;5.38;;;;;;;;;;6159700;23;20056;-86
2023/09/08 16:45:03;;;;;;;17.27;4.95;;;;;;;;;;6161185;23;20002;-87
2023/09/08 16:47:29;;;;;;;19.95;4.35;;;;;;;;;;6161012;23;19998;-86
2023/09/08 16:49:55;;;;;;;9.45;4.25;;;;;;;;;;6159357;23;20014;-86
2023/09/08 16:52:24;;;;;;;16.00;4.38;;;;;;;;;;6160547;23;20010;-84
2023/09/08 16:54:50;;;;;;;12.43;4.68;;;;;;;;;;6160977;23;20010;-82
2023/09/08 16:57:16;;;;;;;8.52;3.88;;;;;;;;;;6160616;23;20016;-84
2023/09/08 16:59:42;;;;;;;11.38;4.32;;;;;;;;;;6160430;23;20005;-82
2023/09/08 17:02:09;;;;;;;12.02;4.38;;;;;;;;;;6160593;23;20002;-84
2023/09/08 17:04:35;;;;;;;10.48;4.10;;;;;;;;;;6160674;23;20044;-85
2023/09/08 17:07:02;;;;;;;10.40;4.63;;;;;;;;;;6160613;23;19998;-85
2023/09/08 17:09:28;;;;;;;13.45;4.43;;;;;;;;;;6159034;23;20395;-84
2023/09/08 17:11:54;;;;;;;10.23;4.28;;;;;;;;;;6161087;23;20323;-85
2023/09/08 17:14:20;;;;;;;9.90;4.20;;;;;;;;;;6160535;23;20369;-86
2023/09/08 17:16:46;;;;;;;7.95;4.50;;;;;;;;;;6160937;23;20361;-92
2023/09/08 17:19:12;;;;;;;15.10;5.60;;;;;;;;;;6160581;23;20005;-86
2023/09/08 17:21:38;;;;;;;9.68;5.45;;;;;;;;;;6159723;23;20272;-86
2023/09/08 17:24:04;;;;;;;8.63;5.07;;;;;;;;;;6159556;23;20013;-84
2023/09/08 17:26:31;;;;;;;11.73;5.63;;;;;;;;;;6159186;23;20004;-86
2023/09/08 17:28:57;;;;;;;9.38;6.68;;;;;;;;;;6159742;23;20006;-86
2023/09/08 17:31:23;;;;;;;14.40;7.18;;;;;;;;;;6159467;23;20012;-84
2023/09/08 17:33:49;;;;;;;17.77;8.18;;;;;;;;;;6160777;23;20005;-87
2023/09/08 17:36:15;;;;;;;9.82;6.15;;;;;;;;;;6159224;23;20013;-91
2023/09/08 17:38:41;;;;;;;10.13;4.78;;;;;;;;;;6159947;23;20012;-84
2023/09/08 17:41:08;;;;;;;8.05;4.68;;;;;;;;;;6160956;23;20073;-87